createdAt,value
2018-04-10T00:00:06.702Z,1006.11
2018-04-10T00:01:06.708Z,1006.06
2018-04-10T00:02:06.695Z,1006.05
2018-04-10T00:03:06.664Z,1006.01
2018-04-10T00:04:06.681Z,1006.01
2018-04-10T00:05:06.642Z,1005.95
2018-04-10T00:06:06.678Z,1005.96
2018-04-10T00:07:06.858Z,1005.96
2018-04-10T00:08:06.673Z,1005.96
2018-04-10T00:09:06.655Z,1005.95
2018-04-10T00:10:06.654Z,1005.97
2018-04-10T00:11:06.894Z,1005.98
2018-04-10T00:12:06.670Z,1005.98
2018-04-10T00:13:06.680Z,1005.98
2018-04-10T00:14:06.688Z,1005.97
2018-04-10T00:15:06.817Z,1005.96
2018-04-10T00:16:06.673Z,1006
2018-04-10T00:17:06.699Z,1005.98
2018-04-10T00:18:06.729Z,1005.93
2018-04-10T00:19:06.767Z,1005.9
2018-04-10T00:20:06.685Z,1005.95
2018-04-10T00:21:06.675Z,1005.96
2018-04-10T00:22:06.791Z,1005.95
2018-04-10T00:23:06.667Z,1005.95
2018-04-10T00:24:06.678Z,1005.97
2018-04-10T00:25:06.671Z,1006
2018-04-10T00:26:06.654Z,1006.02
2018-04-10T00:27:06.739Z,1006.01
2018-04-10T00:28:06.695Z,1005.98
2018-04-10T00:29:06.648Z,1006.03
2018-04-10T00:30:06.644Z,1006.03
2018-04-10T00:31:06.696Z,1006.07
2018-04-10T00:32:06.786Z,1006.08
2018-04-10T00:33:06.654Z,1006.07
2018-04-10T00:34:06.674Z,1006.06
2018-04-10T00:35:06.655Z,1006.07
2018-04-10T00:36:06.640Z,1006.07
2018-04-10T00:37:06.689Z,1006.08
2018-04-10T00:38:06.702Z,1006.07
2018-04-10T00:39:06.651Z,1006.04
2018-04-10T00:40:06.635Z,1006.06
2018-04-10T00:41:06.674Z,1006.02
2018-04-10T00:42:06.665Z,1006.02
2018-04-10T00:43:06.689Z,1006.03
2018-04-10T00:44:06.658Z,1006.06
2018-04-10T00:45:06.685Z,1006.07
2018-04-10T00:46:06.702Z,1006.08
2018-04-10T00:47:06.819Z,1006.06
2018-04-10T00:48:06.620Z,1006.09
2018-04-10T00:49:06.635Z,1006.06
2018-04-10T00:50:06.783Z,1006.05
2018-04-10T00:51:06.659Z,1006.03
2018-04-10T00:52:06.722Z,1006.01
2018-04-10T00:53:06.664Z,1006.01
2018-04-10T00:54:06.699Z,1006.02
2018-04-10T00:55:06.692Z,1006.02
2018-04-10T00:56:06.737Z,1006
2018-04-10T00:57:06.662Z,1006
2018-04-10T00:58:06.672Z,1006
2018-04-10T00:59:06.673Z,1005.98
2018-04-10T01:00:06.664Z,1006.01
2018-04-10T01:01:06.700Z,1006.02
2018-04-10T01:02:06.689Z,1006.04
2018-04-10T01:03:06.680Z,1005.99
2018-04-10T01:04:06.673Z,1006.04
2018-04-10T01:05:06.482Z,1006.01
2018-04-10T01:06:06.740Z,1006.02
2018-04-10T01:07:06.692Z,1006.03
2018-04-10T01:08:06.710Z,1006.05
2018-04-10T01:09:06.790Z,1006.09
2018-04-10T01:10:06.742Z,1006.08
2018-04-10T01:11:06.683Z,1006.07
2018-04-10T01:12:06.884Z,1006.06
2018-04-10T01:13:06.795Z,1006.06
2018-04-10T01:14:06.811Z,1006.06
2018-04-10T01:15:06.646Z,1006.02
2018-04-10T01:16:06.668Z,1006.02
2018-04-10T01:17:06.759Z,1005.98
2018-04-10T01:18:06.677Z,1005.97
2018-04-10T01:19:06.644Z,1005.98
2018-04-10T01:20:06.638Z,1006.01
2018-04-10T01:21:06.685Z,1005.97
2018-04-10T01:22:06.686Z,1006.02
2018-04-10T01:23:06.700Z,1006.02
2018-04-10T01:24:06.653Z,1006.04
2018-04-10T01:25:06.655Z,1006.04
2018-04-10T01:26:06.675Z,1006.05
2018-04-10T01:27:06.669Z,1006.06
2018-04-10T01:28:06.655Z,1006.07
2018-04-10T01:29:06.675Z,1006.07
2018-04-10T01:30:06.637Z,1006.06
2018-04-10T01:31:06.688Z,1006.04
2018-04-10T01:32:06.633Z,1006.03
2018-04-10T01:33:06.684Z,1006.04
2018-04-10T01:34:06.660Z,1006.03
2018-04-10T01:35:06.781Z,1006.05
2018-04-10T01:36:06.651Z,1006.04
2018-04-10T01:37:06.672Z,1006
2018-04-10T01:38:06.669Z,1006.02
2018-04-10T01:39:06.650Z,1006.04
2018-04-10T01:40:06.645Z,1005.94
2018-04-10T01:41:06.656Z,1006.01
2018-04-10T01:42:06.722Z,1005.97
2018-04-10T01:43:06.654Z,1006.01
2018-04-10T01:44:06.636Z,1006.03
2018-04-10T01:45:06.721Z,1006.01
2018-04-10T01:46:06.623Z,1006.04
2018-04-10T01:47:06.643Z,1006.02
2018-04-10T01:48:06.668Z,1006.02
2018-04-10T01:49:06.715Z,1005.94
2018-04-10T01:50:06.859Z,1005.93
2018-04-10T01:51:06.721Z,1005.88
2018-04-10T01:52:06.651Z,1005.84
2018-04-10T01:53:06.624Z,1005.86
2018-04-10T01:54:06.637Z,1005.9
2018-04-10T01:55:06.626Z,1005.88
2018-04-10T01:56:06.626Z,1005.9
2018-04-10T01:57:06.648Z,1005.92
2018-04-10T01:58:06.680Z,1005.93
2018-04-10T01:59:06.666Z,1005.92
2018-04-10T02:00:06.665Z,1005.93
2018-04-10T02:01:06.611Z,1005.92
2018-04-10T02:02:06.781Z,1005.93
2018-04-10T02:03:06.630Z,1005.96
2018-04-10T02:04:06.613Z,1005.94
2018-04-10T02:05:06.628Z,1005.96
2018-04-10T02:06:06.644Z,1005.92
2018-04-10T02:07:06.666Z,1005.93
2018-04-10T02:08:06.659Z,1005.92
2018-04-10T02:09:06.627Z,1005.94
2018-04-10T02:10:06.626Z,1005.91
2018-04-10T02:11:06.675Z,1005.94
2018-04-10T02:12:06.641Z,1005.97
2018-04-10T02:13:06.614Z,1005.93
2018-04-10T02:14:06.638Z,1005.96
2018-04-10T02:15:06.619Z,1005.95
2018-04-10T02:16:06.623Z,1005.93
2018-04-10T02:17:06.619Z,1005.92
2018-04-10T02:18:06.760Z,1005.95
2018-04-10T02:19:06.609Z,1005.94
2018-04-10T02:20:06.625Z,1005.94
2018-04-10T02:21:06.670Z,1005.95
2018-04-10T02:22:06.659Z,1005.99
2018-04-10T02:23:06.638Z,1006
2018-04-10T02:24:06.613Z,1006
2018-04-10T02:25:06.928Z,1005.99
2018-04-10T02:26:06.619Z,1006.02
2018-04-10T02:27:06.652Z,1006.02
2018-04-10T02:28:06.654Z,1006
2018-04-10T02:29:06.636Z,1006.01
2018-04-10T02:30:06.755Z,1006
2018-04-10T02:31:06.608Z,1006.01
2018-04-10T02:32:06.674Z,1006.03
2018-04-10T02:33:06.664Z,1006.02
2018-04-10T02:34:06.668Z,1006.03
2018-04-10T02:35:06.654Z,1006.09
2018-04-10T02:36:06.621Z,1006.04
2018-04-10T02:37:06.881Z,1006.04
2018-04-10T02:38:06.649Z,1006.04
2018-04-10T02:39:06.639Z,1006.05
2018-04-10T02:40:06.677Z,1006
2018-04-10T02:41:06.615Z,1006
2018-04-10T02:42:06.664Z,1006
2018-04-10T02:43:06.640Z,1005.99
2018-04-10T02:44:06.636Z,1005.99
2018-04-10T02:45:06.676Z,1005.94
2018-04-10T02:46:06.634Z,1005.93
2018-04-10T02:47:06.627Z,1005.94
2018-04-10T02:48:06.688Z,1005.95
2018-04-10T02:49:06.620Z,1005.88
2018-04-10T02:50:06.620Z,1005.96
2018-04-10T02:51:06.663Z,1005.97
2018-04-10T02:52:06.593Z,1005.98
2018-04-10T02:53:06.618Z,1006
2018-04-10T02:54:06.618Z,1005.98
2018-04-10T02:55:06.613Z,1005.98
2018-04-10T02:56:06.638Z,1005.98
2018-04-10T02:57:06.619Z,1005.99
2018-04-10T02:58:06.794Z,1005.98
2018-04-10T02:59:06.641Z,1005.97
2018-04-10T03:00:06.595Z,1005.97
2018-04-10T03:01:06.636Z,1005.99
2018-04-10T03:02:06.595Z,1005.95
2018-04-10T03:03:06.639Z,1005.99
2018-04-10T03:04:06.644Z,1005.95
2018-04-10T03:05:06.626Z,1005.96
2018-04-10T03:06:06.659Z,1005.97
2018-04-10T03:07:06.600Z,1005.96
2018-04-10T03:08:06.609Z,1005.97
2018-04-10T03:09:06.596Z,1006.01
2018-04-10T03:10:06.716Z,1006.03
2018-04-10T03:11:06.697Z,1006.05
2018-04-10T03:12:06.648Z,1006.04
2018-04-10T03:13:06.609Z,1006.07
2018-04-10T03:14:06.687Z,1006.05
2018-04-10T03:15:06.607Z,1006.06
2018-04-10T03:16:06.619Z,1006.04
2018-04-10T03:17:06.589Z,1006.04
2018-04-10T03:18:06.618Z,1006.07
2018-04-10T03:19:06.640Z,1006.08
2018-04-10T03:20:06.649Z,1006.09
2018-04-10T03:21:06.620Z,1006.06
2018-04-10T03:22:06.661Z,1006.08
2018-04-10T03:23:06.591Z,1006.09
2018-04-10T03:24:06.653Z,1006.11
2018-04-10T03:25:06.605Z,1006.09
2018-04-10T03:26:06.621Z,1006.1
2018-04-10T03:27:06.613Z,1006.13
2018-04-10T03:28:06.633Z,1006.17
2018-04-10T03:29:06.809Z,1006.14
2018-04-10T03:30:06.667Z,1006.15
2018-04-10T03:31:06.606Z,1006.13
2018-04-10T03:32:06.772Z,1006.07
2018-04-10T03:33:06.601Z,1006.08
2018-04-10T03:34:06.615Z,1006.04
2018-04-10T03:35:06.614Z,1006.04
2018-04-10T03:36:06.591Z,1006.02
2018-04-10T03:37:06.606Z,1006.02
2018-04-10T03:38:06.605Z,1005.96
2018-04-10T03:39:06.611Z,1005.99
2018-04-10T03:40:06.581Z,1006.01
2018-04-10T03:41:06.616Z,1005.99
2018-04-10T03:42:06.629Z,1006.02
2018-04-10T03:43:06.757Z,1006
2018-04-10T03:44:06.755Z,1005.97
2018-04-10T03:45:06.618Z,1006.01
2018-04-10T03:46:06.644Z,1006
2018-04-10T03:47:06.638Z,1005.98
2018-04-10T03:48:06.689Z,1005.95
2018-04-10T03:49:06.618Z,1005.89
2018-04-10T03:50:06.587Z,1005.9
2018-04-10T03:51:06.582Z,1005.88
2018-04-10T03:52:06.595Z,1005.84
2018-04-10T03:53:06.579Z,1005.79
2018-04-10T03:54:06.655Z,1005.8
2018-04-10T03:55:06.596Z,1005.78
2018-04-10T03:56:06.624Z,1005.8
2018-04-10T03:57:06.657Z,1005.75
2018-04-10T03:58:06.604Z,1005.76
2018-04-10T03:59:06.724Z,1005.74
2018-04-10T04:00:06.619Z,1005.69
2018-04-10T04:01:06.656Z,1005.71
2018-04-10T04:02:06.665Z,1005.66
2018-04-10T04:03:06.623Z,1005.64
2018-04-10T04:04:06.614Z,1005.57
2018-04-10T04:05:06.586Z,1005.56
2018-04-10T04:06:06.586Z,1005.54
2018-04-10T04:07:06.604Z,1005.53
2018-04-10T04:08:06.605Z,1005.51
2018-04-10T04:09:06.605Z,1005.48
2018-04-10T04:10:06.599Z,1005.49
2018-04-10T04:11:06.585Z,1005.41
2018-04-10T04:12:06.601Z,1005.39
2018-04-10T04:13:06.630Z,1005.38
2018-04-10T04:14:06.595Z,1005.36
2018-04-10T04:15:06.623Z,1005.36
2018-04-10T04:16:06.761Z,1005.36
2018-04-10T04:17:06.594Z,1005.3
2018-04-10T04:18:06.591Z,1005.31
2018-04-10T04:19:06.742Z,1005.26
2018-04-10T04:20:06.648Z,1005.25
2018-04-10T04:21:06.602Z,1005.22
2018-04-10T04:22:06.610Z,1005.16
2018-04-10T04:23:06.622Z,1005.16
2018-04-10T04:24:06.601Z,1005.16
2018-04-10T04:25:06.831Z,1005.11
2018-04-10T04:26:06.712Z,1005.12
2018-04-10T04:27:06.594Z,1005.14
2018-04-10T04:28:06.597Z,1005.11
2018-04-10T04:29:06.639Z,1005.11
2018-04-10T04:30:06.603Z,1005.09
2018-04-10T04:31:06.771Z,1005.14
2018-04-10T04:32:06.639Z,1005.17
2018-04-10T04:33:06.592Z,1005.19
2018-04-10T04:34:06.600Z,1005.2
2018-04-10T04:35:06.731Z,1005.25
2018-04-10T04:36:06.603Z,1005.27
2018-04-10T04:37:06.729Z,1005.32
2018-04-10T04:38:06.607Z,1005.32
2018-04-10T04:39:06.607Z,1005.4
2018-04-10T04:40:06.592Z,1005.44
2018-04-10T04:41:06.575Z,1005.55
2018-04-10T04:42:06.584Z,1005.6
2018-04-10T04:43:06.724Z,1005.6
2018-04-10T04:44:06.660Z,1005.68
2018-04-10T04:45:06.579Z,1005.69
2018-04-10T04:46:06.621Z,1005.73
2018-04-10T04:47:06.644Z,1005.78
2018-04-10T04:48:06.554Z,1005.76
2018-04-10T04:49:06.684Z,1005.77
2018-04-10T04:50:06.583Z,1005.73
2018-04-10T04:51:06.630Z,1005.71
2018-04-10T04:52:06.771Z,1005.67
2018-04-10T04:53:06.643Z,1005.64
2018-04-10T04:54:06.584Z,1005.65
2018-04-10T04:55:06.584Z,1005.56
2018-04-10T04:56:06.608Z,1005.56
2018-04-10T04:57:06.591Z,1005.51
2018-04-10T04:58:06.636Z,1005.44
2018-04-10T04:59:06.574Z,1005.43
2018-04-10T05:00:06.593Z,1005.39
2018-04-10T05:01:06.602Z,1005.36
2018-04-10T05:02:06.591Z,1005.44
2018-04-10T05:03:06.571Z,1005.38
2018-04-10T05:04:06.558Z,1005.39
2018-04-10T05:05:06.591Z,1005.39
2018-04-10T05:06:06.614Z,1005.41
2018-04-10T05:07:06.675Z,1005.43
2018-04-10T05:08:06.600Z,1005.42
2018-04-10T05:09:06.596Z,1005.43
2018-04-10T05:10:06.571Z,1005.43
2018-04-10T05:11:06.670Z,1005.4
2018-04-10T05:12:06.713Z,1005.38
2018-04-10T05:13:06.645Z,1005.37
2018-04-10T05:14:06.606Z,1005.36
2018-04-10T05:15:06.578Z,1005.36
2018-04-10T05:16:06.636Z,1005.37
2018-04-10T05:17:06.668Z,1005.37
2018-04-10T05:18:06.572Z,1005.38
2018-04-10T05:19:06.588Z,1005.42
2018-04-10T05:20:06.602Z,1005.39
2018-04-10T05:21:06.559Z,1005.4
2018-04-10T05:22:06.670Z,1005.42
2018-04-10T05:23:06.562Z,1005.45
2018-04-10T05:24:06.599Z,1005.43
2018-04-10T05:25:06.576Z,1005.46
2018-04-10T05:26:06.615Z,1005.51
2018-04-10T05:27:06.674Z,1005.52
2018-04-10T05:28:06.556Z,1005.51
2018-04-10T05:29:06.568Z,1005.5
2018-04-10T05:30:06.563Z,1005.5
2018-04-10T05:31:06.568Z,1005.52
2018-04-10T05:32:06.555Z,1005.5
2018-04-10T05:33:06.561Z,1005.47
2018-04-10T05:34:06.589Z,1005.47
2018-04-10T05:35:06.605Z,1005.5
2018-04-10T05:36:06.569Z,1005.48
2018-04-10T05:37:06.616Z,1005.5
2018-04-10T05:38:06.607Z,1005.49
2018-04-10T05:39:06.665Z,1005.47
2018-04-10T05:40:06.670Z,1005.49
2018-04-10T05:41:06.587Z,1005.51
2018-04-10T05:42:06.588Z,1005.52
2018-04-10T05:43:06.597Z,1005.53
2018-04-10T05:44:06.586Z,1005.56
2018-04-10T05:45:06.542Z,1005.48
2018-04-10T05:46:06.571Z,1005.56
2018-04-10T05:47:06.705Z,1005.57
2018-04-10T05:48:06.844Z,1005.54
2018-04-10T05:49:06.673Z,1005.54
2018-04-10T05:50:06.572Z,1005.62
2018-04-10T05:51:06.534Z,1005.63
2018-04-10T05:52:06.632Z,1005.59
2018-04-10T05:53:06.713Z,1005.62
2018-04-10T05:54:06.553Z,1005.63
2018-04-10T05:55:06.632Z,1005.62
2018-04-10T05:56:06.635Z,1005.63
2018-04-10T05:57:06.640Z,1005.65
2018-04-10T05:58:06.667Z,1005.63
2018-04-10T05:59:07.114Z,1005.68
2018-04-10T06:00:09.414Z,1005.7
2018-04-10T06:01:06.638Z,1005.65
2018-04-10T06:02:09.297Z,1005.67
2018-04-10T06:03:09.063Z,1005.72
2018-04-10T06:04:06.612Z,1005.73
2018-04-10T06:05:07.084Z,1005.73
2018-04-10T06:06:09.094Z,1005.75
2018-04-10T06:07:06.647Z,1005.78
2018-04-10T06:08:06.617Z,1005.81
2018-04-10T06:09:09.033Z,1005.84
2018-04-10T06:10:06.643Z,1005.86
2018-04-10T06:11:06.615Z,1005.92
2018-04-10T06:12:09.045Z,1005.92
2018-04-10T06:13:06.543Z,1005.93
2018-04-10T06:14:06.752Z,1005.95
2018-04-10T06:15:06.588Z,1005.93
2018-04-10T06:16:06.549Z,1005.9
2018-04-10T06:17:06.557Z,1005.91
2018-04-10T06:18:06.564Z,1005.94
2018-04-10T06:19:06.547Z,1005.91
2018-04-10T06:20:06.535Z,1005.9
2018-04-10T06:21:06.588Z,1005.93
2018-04-10T06:22:06.555Z,1005.95
2018-04-10T06:23:06.566Z,1005.95
2018-04-10T06:24:06.620Z,1005.96
2018-04-10T06:25:06.542Z,1005.93
2018-04-10T06:26:06.527Z,1005.91
2018-04-10T06:27:06.577Z,1005.91
2018-04-10T06:28:06.623Z,1005.86
2018-04-10T06:29:06.646Z,1005.88
2018-04-10T06:30:06.519Z,1005.87
2018-04-10T06:31:06.509Z,1005.87
2018-04-10T06:32:06.553Z,1005.9
2018-04-10T06:33:06.559Z,1005.92
2018-04-10T06:34:06.582Z,1005.86
2018-04-10T06:35:06.530Z,1005.9
2018-04-10T06:36:06.599Z,1005.91
2018-04-10T06:37:06.792Z,1005.91
2018-04-10T06:38:06.540Z,1005.92
2018-04-10T06:39:06.563Z,1005.92
2018-04-10T06:40:06.528Z,1005.9
2018-04-10T06:41:06.641Z,1005.94
2018-04-10T06:42:06.579Z,1006
2018-04-10T06:43:06.660Z,1006.05
2018-04-10T06:44:06.544Z,1006.08
2018-04-10T06:45:06.820Z,1006.11
2018-04-10T06:46:06.586Z,1006.07
2018-04-10T06:47:06.564Z,1006.1
2018-04-10T06:48:06.577Z,1006.14
2018-04-10T06:49:06.566Z,1006.12
2018-04-10T06:50:06.654Z,1006.12
2018-04-10T06:51:06.545Z,1006.15
2018-04-10T06:52:06.537Z,1006.12
2018-04-10T06:53:06.554Z,1006.15
2018-04-10T06:54:06.601Z,1006.17
2018-04-10T06:55:06.589Z,1006.16
2018-04-10T06:56:06.536Z,1006.13
2018-04-10T06:57:06.537Z,1006.15
2018-04-10T06:58:06.603Z,1006.18
2018-04-10T06:59:06.600Z,1006.15
2018-04-10T07:00:06.595Z,1006.15
2018-04-10T07:01:06.605Z,1006.19
2018-04-10T07:02:06.562Z,1006.18
2018-04-10T07:03:06.527Z,1006.22
2018-04-10T07:04:06.775Z,1006.22
2018-04-10T07:05:06.533Z,1006.2
2018-04-10T07:06:06.550Z,1006.22
2018-04-10T07:07:06.577Z,1006.19
2018-04-10T07:08:06.562Z,1006.18
2018-04-10T07:09:06.552Z,1006.23
2018-04-10T07:10:06.528Z,1006.16
2018-04-10T07:11:06.520Z,1006.15
2018-04-10T07:12:06.680Z,1006.14
2018-04-10T07:13:06.668Z,1006.15
2018-04-10T07:14:06.578Z,1006.13
2018-04-10T07:15:06.526Z,1006.1
2018-04-10T07:16:06.556Z,1006.08
2018-04-10T07:17:06.519Z,1006.07
2018-04-10T07:18:06.555Z,1006.07
2018-04-10T07:19:06.566Z,1006.07
2018-04-10T07:20:06.591Z,1006.04
2018-04-10T07:21:06.521Z,1006.06
2018-04-10T07:22:06.522Z,1006.04
2018-04-10T07:23:06.523Z,1006.05
2018-04-10T07:24:06.786Z,1006.06
2018-04-10T07:25:06.520Z,1006.08
2018-04-10T07:26:06.919Z,1006.08
2018-04-10T07:27:06.549Z,1006.07
2018-04-10T07:28:06.773Z,1006.07
2018-04-10T07:29:06.766Z,1006.09
2018-04-10T07:30:06.546Z,1006.09
2018-04-10T07:31:06.536Z,1006.12
2018-04-10T07:32:06.733Z,1006.16
2018-04-10T07:33:06.542Z,1006.12
2018-04-10T07:34:06.731Z,1006.16
2018-04-10T07:35:06.805Z,1006.12
2018-04-10T07:36:06.627Z,1006.11
2018-04-10T07:37:06.558Z,1006.08
2018-04-10T07:38:06.508Z,1006.1
2018-04-10T07:39:06.549Z,1006.07
2018-04-10T07:40:06.597Z,1006.04
2018-04-10T07:41:06.553Z,1006.08
2018-04-10T07:42:06.527Z,1006.07
2018-04-10T07:43:06.576Z,1005.99
2018-04-10T07:44:06.577Z,1006
2018-04-10T07:45:06.606Z,1006
2018-04-10T07:46:06.665Z,1005.98
2018-04-10T07:47:06.584Z,1005.98
2018-04-10T07:48:06.840Z,1005.96
2018-04-10T07:49:06.561Z,1005.94
2018-04-10T07:50:06.515Z,1005.91
2018-04-10T07:51:06.576Z,1005.95
2018-04-10T07:52:06.499Z,1005.93
2018-04-10T07:53:06.490Z,1005.97
2018-04-10T07:54:06.528Z,1005.96
2018-04-10T07:55:06.476Z,1005.92
2018-04-10T07:56:06.588Z,1005.96
2018-04-10T07:57:06.559Z,1005.96
2018-04-10T07:58:06.593Z,1005.97
2018-04-10T07:59:06.511Z,1005.98
2018-04-10T08:00:06.585Z,1005.98
2018-04-10T08:01:06.565Z,1005.93
2018-04-10T08:02:06.491Z,1005.95
2018-04-10T08:03:06.552Z,1005.92
2018-04-10T08:04:06.527Z,1005.94
2018-04-10T08:05:06.650Z,1005.94
2018-04-10T08:06:06.533Z,1005.95
2018-04-10T08:07:06.511Z,1005.96
2018-04-10T08:08:06.513Z,1005.95
2018-04-10T08:09:06.520Z,1005.94
2018-04-10T08:10:06.505Z,1005.95
2018-04-10T08:11:06.556Z,1005.99
2018-04-10T08:12:06.532Z,1005.95
2018-04-10T08:13:06.524Z,1005.94
2018-04-10T08:14:06.523Z,1005.97
2018-04-10T08:15:06.504Z,1006.04
2018-04-10T08:16:06.577Z,1006.03
2018-04-10T08:17:06.507Z,1006.01
2018-04-10T08:18:06.517Z,1006.03
2018-04-10T08:19:06.536Z,1006.05
2018-04-10T08:20:06.501Z,1006.06
2018-04-10T08:21:06.650Z,1006.08
2018-04-10T08:22:06.524Z,1006.03
2018-04-10T08:23:06.486Z,1006.06
2018-04-10T08:24:06.601Z,1006.06
2018-04-10T08:25:06.491Z,1006
2018-04-10T08:26:06.522Z,1005.99
2018-04-10T08:27:06.519Z,1005.97
2018-04-10T08:28:06.531Z,1005.93
2018-04-10T08:29:06.488Z,1005.94
2018-04-10T08:30:06.512Z,1005.93
2018-04-10T08:31:06.527Z,1005.93
2018-04-10T08:32:06.506Z,1005.97
2018-04-10T08:33:06.549Z,1005.91
2018-04-10T08:34:06.479Z,1005.9
2018-04-10T08:35:06.583Z,1005.91
2018-04-10T08:36:06.520Z,1005.94
2018-04-10T08:37:06.488Z,1005.93
2018-04-10T08:38:06.492Z,1005.9
2018-04-10T08:39:06.636Z,1005.92
2018-04-10T08:40:06.479Z,1005.88
2018-04-10T08:41:06.494Z,1005.89
2018-04-10T08:42:06.582Z,1005.86
2018-04-10T08:43:06.483Z,1005.85
2018-04-10T08:44:06.522Z,1005.9
2018-04-10T08:45:06.658Z,1005.93
2018-04-10T08:46:06.538Z,1005.96
2018-04-10T08:47:06.530Z,1005.92
2018-04-10T08:48:06.468Z,1005.94
2018-04-10T08:49:06.542Z,1005.89
2018-04-10T08:50:06.543Z,1005.9
2018-04-10T08:51:06.559Z,1005.9
2018-04-10T08:52:06.521Z,1005.83
2018-04-10T08:53:06.530Z,1005.84
2018-04-10T08:54:06.760Z,1005.9
2018-04-10T08:55:06.514Z,1005.83
2018-04-10T08:56:06.607Z,1005.88
2018-04-10T08:57:06.515Z,1005.88
2018-04-10T08:58:06.928Z,1005.91
2018-04-10T08:59:06.648Z,1005.87
2018-04-10T09:00:06.526Z,1005.84
2018-04-10T09:01:06.476Z,1005.86
2018-04-10T09:02:06.531Z,1005.86
2018-04-10T09:03:06.525Z,1005.79
2018-04-10T09:04:06.507Z,1005.79
2018-04-10T09:05:06.523Z,1005.83
2018-04-10T09:06:06.585Z,1005.79
2018-04-10T09:07:06.519Z,1005.76
2018-04-10T09:08:06.511Z,1005.78
2018-04-10T09:09:06.610Z,1005.78
2018-04-10T09:10:06.506Z,1005.75
2018-04-10T09:11:06.524Z,1005.75
2018-04-10T09:12:06.524Z,1005.76
2018-04-10T09:13:06.612Z,1005.8
2018-04-10T09:14:06.611Z,1005.86
2018-04-10T09:15:06.472Z,1005.83
2018-04-10T09:16:06.513Z,1005.85
2018-04-10T09:17:06.514Z,1005.88
2018-04-10T09:18:06.490Z,1005.84
2018-04-10T09:19:06.551Z,1005.87
2018-04-10T09:20:06.479Z,1005.93
2018-04-10T09:21:06.468Z,1005.93
2018-04-10T09:22:06.548Z,1005.91
2018-04-10T09:23:06.491Z,1005.9
2018-04-10T09:24:06.471Z,1005.93
2018-04-10T09:25:06.542Z,1005.93
2018-04-10T09:26:06.492Z,1005.95
2018-04-10T09:27:06.509Z,1005.95
2018-04-10T09:28:06.596Z,1005.88
2018-04-10T09:29:06.645Z,1005.93
2018-04-10T09:30:06.477Z,1005.91
2018-04-10T09:31:06.502Z,1005.91
2018-04-10T09:32:06.535Z,1005.98
2018-04-10T09:33:06.625Z,1005.9
2018-04-10T09:34:06.507Z,1005.94
2018-04-10T09:35:06.477Z,1005.93
2018-04-10T09:36:06.473Z,1005.92
2018-04-10T09:37:06.617Z,1005.95
2018-04-10T09:38:06.507Z,1005.89
2018-04-10T09:39:06.490Z,1006
2018-04-10T09:40:06.468Z,1005.96
2018-04-10T09:41:06.472Z,1005.94
2018-04-10T09:42:06.475Z,1005.97
2018-04-10T09:43:06.535Z,1005.94
2018-04-10T09:44:06.517Z,1005.95
2018-04-10T09:45:06.490Z,1005.95
2018-04-10T09:46:06.472Z,1005.93
2018-04-10T09:47:06.492Z,1005.96
2018-04-10T09:48:06.473Z,1005.97
2018-04-10T09:49:06.480Z,1005.98
2018-04-10T09:50:06.484Z,1006.02
2018-04-10T09:51:06.537Z,1006.04
2018-04-10T09:52:06.484Z,1006
2018-04-10T09:53:06.546Z,1005.99
2018-04-10T09:54:06.465Z,1006
2018-04-10T09:55:06.530Z,1005.98
2018-04-10T09:56:06.520Z,1005.9
2018-04-10T09:57:06.556Z,1005.89
2018-04-10T09:58:06.516Z,1005.89
2018-04-10T09:59:06.601Z,1005.88
2018-04-10T10:00:06.464Z,1005.85
2018-04-10T10:01:06.546Z,1005.85
2018-04-10T10:02:06.521Z,1005.87
2018-04-10T10:03:06.507Z,1005.85
2018-04-10T10:04:06.459Z,1005.84
2018-04-10T10:05:06.511Z,1005.83
2018-04-10T10:06:06.482Z,1005.84
2018-04-10T10:07:06.445Z,1005.84
2018-04-10T10:08:06.548Z,1005.86
2018-04-10T10:09:06.526Z,1005.83
2018-04-10T10:10:06.478Z,1005.81
2018-04-10T10:11:06.596Z,1005.85
2018-04-10T10:12:06.508Z,1005.88
2018-04-10T10:13:06.517Z,1005.86
2018-04-10T10:14:06.498Z,1005.88
2018-04-10T10:15:06.471Z,1005.93
2018-04-10T10:16:06.494Z,1005.9
2018-04-10T10:17:06.533Z,1005.9
2018-04-10T10:18:06.515Z,1005.88
2018-04-10T10:19:06.489Z,1005.87
2018-04-10T10:20:06.510Z,1005.87
2018-04-10T10:21:06.471Z,1005.87
2018-04-10T10:22:06.485Z,1005.81
2018-04-10T10:23:06.508Z,1005.82
2018-04-10T10:24:06.459Z,1005.74
2018-04-10T10:25:06.501Z,1005.68
2018-04-10T10:26:06.487Z,1005.7
2018-04-10T10:27:06.531Z,1005.68
2018-04-10T10:28:06.493Z,1005.6
2018-04-10T10:29:06.473Z,1005.58
2018-04-10T10:30:06.491Z,1005.58
2018-04-10T10:31:06.525Z,1005.56
2018-04-10T10:32:06.655Z,1005.6
2018-04-10T10:33:06.478Z,1005.56
2018-04-10T10:34:06.485Z,1005.54
2018-04-10T10:35:06.448Z,1005.53
2018-04-10T10:36:06.508Z,1005.48
2018-04-10T10:37:06.440Z,1005.51
2018-04-10T10:38:06.586Z,1005.42
2018-04-10T10:39:06.569Z,1005.44
2018-04-10T10:40:06.567Z,1005.46
2018-04-10T10:41:06.480Z,1005.43
2018-04-10T10:42:06.503Z,1005.46
2018-04-10T10:43:06.689Z,1005.43
2018-04-10T10:44:06.512Z,1005.42
2018-04-10T10:45:06.496Z,1005.44
2018-04-10T10:46:06.498Z,1005.43
2018-04-10T10:47:06.641Z,1005.51
2018-04-10T10:48:06.504Z,1005.5
2018-04-10T10:49:06.460Z,1005.47
2018-04-10T10:50:06.461Z,1005.5
2018-04-10T10:51:06.470Z,1005.49
2018-04-10T10:52:06.453Z,1005.53
2018-04-10T10:53:06.478Z,1005.5
2018-04-10T10:54:06.474Z,1005.53
2018-04-10T10:55:06.560Z,1005.57
2018-04-10T10:56:06.462Z,1005.45
2018-04-10T10:57:06.436Z,1005.55
2018-04-10T10:58:06.656Z,1005.47
2018-04-10T10:59:06.478Z,1005.52
2018-04-10T11:00:06.442Z,1005.49
2018-04-10T11:01:06.682Z,1005.47
2018-04-10T11:02:06.475Z,1005.48
2018-04-10T11:03:06.640Z,1005.5
2018-04-10T11:04:06.499Z,1005.47
2018-04-10T11:05:06.491Z,1005.52
2018-04-10T11:06:06.459Z,1005.52
2018-04-10T11:07:06.474Z,1005.5
2018-04-10T11:08:06.516Z,1005.5
2018-04-10T11:09:06.468Z,1005.49
2018-04-10T11:10:06.616Z,1005.46
2018-04-10T11:11:06.558Z,1005.45
2018-04-10T11:12:06.509Z,1005.46
2018-04-10T11:13:06.597Z,1005.42
2018-04-10T11:14:06.562Z,1005.37
2018-04-10T11:15:06.546Z,1005.37
2018-04-10T11:16:06.555Z,1005.39
2018-04-10T11:17:06.454Z,1005.39
2018-04-10T11:18:06.499Z,1005.35
2018-04-10T11:19:06.449Z,1005.34
2018-04-10T11:20:06.441Z,1005.36
2018-04-10T11:21:06.461Z,1005.38
2018-04-10T11:22:06.467Z,1005.38
2018-04-10T11:23:06.460Z,1005.32
2018-04-10T11:24:06.434Z,1005.34
2018-04-10T11:25:06.449Z,1005.28
2018-04-10T11:26:06.457Z,1005.33
2018-04-10T11:27:06.454Z,1005.34
2018-04-10T11:28:06.441Z,1005.33
2018-04-10T11:29:06.420Z,1005.34
2018-04-10T11:30:06.454Z,1005.3
2018-04-10T11:31:06.431Z,1005.26
2018-04-10T11:32:06.465Z,1005.3
2018-04-10T11:33:06.487Z,1005.25
2018-04-10T11:34:06.441Z,1005.26
2018-04-10T11:35:06.479Z,1005.19
2018-04-10T11:36:06.464Z,1005.22
2018-04-10T11:37:06.412Z,1005.21
2018-04-10T11:38:06.649Z,1005.21
2018-04-10T11:39:06.521Z,1005.22
2018-04-10T11:40:06.443Z,1005.17
2018-04-10T11:41:06.425Z,1005.12
2018-04-10T11:42:06.438Z,1005.17
2018-04-10T11:43:06.720Z,1005.16
2018-04-10T11:44:06.448Z,1005.14
2018-04-10T11:45:06.491Z,1005.11
2018-04-10T11:46:06.436Z,1005.1
2018-04-10T11:47:06.464Z,1005.12
2018-04-10T11:48:06.463Z,1005.08
2018-04-10T11:49:06.457Z,1005.03
2018-04-10T11:50:06.414Z,1005.02
2018-04-10T11:51:06.442Z,1005.06
2018-04-10T11:52:06.489Z,1005.02
2018-04-10T11:53:06.469Z,1005.06
2018-04-10T11:54:06.489Z,1005
2018-04-10T11:55:06.438Z,1005.03
2018-04-10T11:56:06.435Z,1004.97
2018-04-10T11:57:06.474Z,1004.92
2018-04-10T11:58:06.414Z,1004.92
2018-04-10T11:59:06.450Z,1004.92
2018-04-10T12:00:06.434Z,1004.93
2018-04-10T12:01:06.510Z,1004.92
2018-04-10T12:02:06.498Z,1004.92
2018-04-10T12:03:06.468Z,1004.94
2018-04-10T12:04:06.496Z,1004.89
2018-04-10T12:05:06.465Z,1004.92
2018-04-10T12:06:06.451Z,1004.91
2018-04-10T12:07:06.452Z,1004.91
2018-04-10T12:08:06.418Z,1004.9
2018-04-10T12:09:06.428Z,1004.86